Terminal Aerodrome Forecast
Issued by NWS

Home | Current Version | Previous Version | Text Only | Print | Product List | Glossary On
Versions: 1 2 3 4 5 6 7 8 9 10 11 12
598
FTUS45 KABQ 251132
TAFFMN
TAF
KFMN 251132Z 2512/2612 22010KT P6SM FEW150
     FM251600 25012G22KT P6SM FEW150
     FM252000 26022G34KT P6SM SCT150
     FM260200 26011KT P6SM FEW150
     FM260800 08007KT P6SM FEW150=

USA.gov is the U.S. government's official web portal to all federal, state and local government web resources and services.